sensor_id;sensor_type;location;lat;lon;timestamp;pressure;altitude;pressure_sealevel;temperature;humidity
72086;BME280;64750;52.134;5.424;2022-11-30T00:01:17;102481.97;;;9.82;82.11
72086;BME280;64750;52.134;5.424;2022-11-30T00:03:43;102474.09;;;9.82;82.40
72086;BME280;64750;52.134;5.424;2022-11-30T00:06:12;102479.34;;;9.82;81.99
72086;BME280;64750;52.134;5.424;2022-11-30T00:08:39;102481.97;;;9.82;82.41
72086;BME280;64750;52.134;5.424;2022-11-30T00:11:14;102482.88;;;9.81;82.16
72086;BME280;64750;52.134;5.424;2022-11-30T00:13:43;102484.59;;;9.82;82.19
72086;BME280;64750;52.134;5.424;2022-11-30T00:16:10;102489.84;;;9.82;82.33
72086;BME280;64750;52.134;5.424;2022-11-30T00:18:37;102478.53;;;9.80;82.31
72086;BME280;64750;52.134;5.424;2022-11-30T00:21:06;102486.41;;;9.80;82.27
72086;BME280;64750;52.134;5.424;2022-11-30T00:23:39;102484.66;;;9.81;82.12
72086;BME280;64750;52.134;5.424;2022-11-30T00:26:09;102485.56;;;9.80;82.39
72086;BME280;64750;52.134;5.424;2022-11-30T00:28:36;102490.81;;;9.80;82.10
72086;BME280;64750;52.134;5.424;2022-11-30T00:31:06;102495.22;;;9.79;82.12
72086;BME280;64750;52.134;5.424;2022-11-30T00:33:34;102488.19;;;9.80;82.31
72086;BME280;64750;52.134;5.424;2022-11-30T00:36:04;102486.41;;;9.80;82.37
72086;BME280;64750;52.134;5.424;2022-11-30T00:38:32;102486.41;;;9.80;81.99
72086;BME280;64750;52.134;5.424;2022-11-30T00:40:59;102481.16;;;9.80;81.96
72086;BME280;64750;52.134;5.424;2022-11-30T00:43:26;102481.16;;;9.80;82.25
72086;BME280;64750;52.134;5.424;2022-11-30T00:45:53;102477.63;;;9.81;82.01
72086;BME280;64750;52.134;5.424;2022-11-30T00:48:20;102478.53;;;9.80;82.06
72086;BME280;64750;52.134;5.424;2022-11-30T00:50:47;102478.56;;;9.79;82.06
72086;BME280;64750;52.134;5.424;2022-11-30T00:53:14;102476.81;;;9.79;82.20
72086;BME280;64750;52.134;5.424;2022-11-30T00:55:42;102477.72;;;9.78;82.29
72086;BME280;64750;52.134;5.424;2022-11-30T00:58:10;102489.94;;;9.79;82.29
72086;BME280;64750;52.134;5.424;2022-11-30T01:00:37;102486.44;;;9.79;82.28
72086;BME280;64750;52.134;5.424;2022-11-30T01:03:04;102485.59;;;9.78;82.14
72086;BME280;64750;52.134;5.424;2022-11-30T01:05:34;102481.25;;;9.77;82.05
72086;BME280;64750;52.134;5.424;2022-11-30T01:08:03;102485.59;;;9.78;82.05
72086;BME280;64750;52.134;5.424;2022-11-30T01:10:29;102491.75;;;9.77;81.93
72086;BME280;64750;52.134;5.424;2022-11-30T01:12:56;102491.75;;;9.77;82.02
72086;BME280;64750;52.134;5.424;2022-11-30T01:15:22;102489.13;;;9.77;82.20
72086;BME280;64750;52.134;5.424;2022-11-30T01:17:49;102491.75;;;9.77;82.24
72086;BME280;64750;52.134;5.424;2022-11-30T01:20:16;102487.41;;;9.76;81.97
72086;BME280;64750;52.134;5.424;2022-11-30T01:22:46;102490.94;;;9.75;82.35
72086;BME280;64750;52.134;5.424;2022-11-30T01:25:12;102501.44;;;9.75;82.08
72086;BME280;64750;52.134;5.424;2022-11-30T01:27:39;102497.97;;;9.75;81.94
72086;BME280;64750;52.134;5.424;2022-11-30T01:30:06;102495.34;;;9.75;82.04
72086;BME280;64750;52.134;5.424;2022-11-30T01:32:33;102499.75;;;9.74;82.25
72086;BME280;64750;52.134;5.424;2022-11-30T01:34:59;102497.97;;;9.75;82.03
72086;BME280;64750;52.134;5.424;2022-11-30T01:37:27;102497.13;;;9.74;82.07
72086;BME280;64750;52.134;5.424;2022-11-30T01:39:55;102496.22;;;9.74;81.96
72086;BME280;64750;52.134;5.424;2022-11-30T01:42:22;102496.22;;;9.74;82.04
72086;BME280;64750;52.134;5.424;2022-11-30T01:44:59;102501.47;;;9.74;81.95
72086;BME280;64750;52.134;5.424;2022-11-30T01:47:33;102501.47;;;9.74;81.91
72086;BME280;64750;52.134;5.424;2022-11-30T01:50:16;102496.28;;;9.72;82.18
72086;BME280;64750;52.134;5.424;2022-11-30T01:52:46;102495.38;;;9.73;82.09
72086;BME280;64750;52.134;5.424;2022-11-30T01:55:28;102493.66;;;9.72;81.80
72086;BME280;64750;52.134;5.424;2022-11-30T01:58:09;102496.28;;;9.72;82.06
72086;BME280;64750;52.134;5.424;2022-11-30T02:00:38;102483.25;;;9.69;82.20
72086;BME280;64750;52.134;5.424;2022-11-30T02:03:18;102495.47;;;9.70;81.87
72086;BME280;64750;52.134;5.424;2022-11-30T02:05:49;102497.25;;;9.69;81.98
72086;BME280;64750;52.134;5.424;2022-11-30T02:08:15;102491.09;;;9.71;82.06
72086;BME280;64750;52.134;5.424;2022-11-30T02:10:48;102486.78;;;9.68;82.15
72086;BME280;64750;52.134;5.424;2022-11-30T02:18:15;102491.16;;;9.67;81.97
72086;BME280;64750;52.134;5.424;2022-11-30T02:20:52;102497.28;;;9.68;81.85
72086;BME280;64750;52.134;5.424;2022-11-30T02:26:22;102500.81;;;9.67;82.31
72086;BME280;64750;52.134;5.424;2022-11-30T02:31:42;102504.34;;;9.66;82.18
72086;BME280;64750;52.134;5.424;2022-11-30T02:34:13;102498.25;;;9.65;82.07
72086;BME280;64750;52.134;5.424;2022-11-30T02:36:41;102504.34;;;9.66;81.89
72086;BME280;64750;52.134;5.424;2022-11-30T02:39:10;102498.25;;;9.65;82.17
72086;BME280;64750;52.134;5.424;2022-11-30T02:41:38;102503.50;;;9.65;81.99
72086;BME280;64750;52.134;5.424;2022-11-30T02:44:06;102500.00;;;9.65;82.20
72086;BME280;64750;52.134;5.424;2022-11-30T02:46:46;102503.50;;;9.64;81.91
72086;BME280;64750;52.134;5.424;2022-11-30T02:52:11;102514.00;;;9.64;81.67
72086;BME280;64750;52.134;5.424;2022-11-30T02:54:38;102505.28;;;9.63;81.83
72086;BME280;64750;52.134;5.424;2022-11-30T02:57:06;102507.91;;;9.63;82.13
72086;BME280;64750;52.134;5.424;2022-11-30T02:59:33;102517.56;;;9.63;81.88
72086;BME280;64750;52.134;5.424;2022-11-30T03:01:59;102519.31;;;9.62;81.78
72086;BME280;64750;52.134;5.424;2022-11-30T03:04:26;102517.59;;;9.61;81.77
72086;BME280;64750;52.134;5.424;2022-11-30T03:06:52;102516.75;;;9.61;82.00
72086;BME280;64750;52.134;5.424;2022-11-30T03:09:19;102519.38;;;9.61;81.77
72086;BME280;64750;52.134;5.424;2022-11-30T03:11:45;102527.25;;;9.61;81.61
72086;BME280;64750;52.134;5.424;2022-11-30T03:14:15;102515.91;;;9.60;81.82
72086;BME280;64750;52.134;5.424;2022-11-30T03:16:41;102520.25;;;9.60;81.86
72086;BME280;64750;52.134;5.424;2022-11-30T03:19:09;102520.31;;;9.58;82.04
72086;BME280;64750;52.134;5.424;2022-11-30T03:21:35;102514.16;;;9.59;82.13
72086;BME280;64750;52.134;5.424;2022-11-30T03:24:02;102522.94;;;9.58;82.07
72086;BME280;64750;52.134;5.424;2022-11-30T03:26:28;102522.09;;;9.58;81.97
72086;BME280;64750;52.134;5.424;2022-11-30T03:28:55;102520.38;;;9.57;81.67
72086;BME280;64750;52.134;5.424;2022-11-30T03:31:23;102514.25;;;9.56;81.86
72086;BME280;64750;52.134;5.424;2022-11-30T03:33:49;102519.50;;;9.56;82.15
72086;BME280;64750;52.134;5.424;2022-11-30T03:36:16;102524.78;;;9.55;82.04
72086;BME280;64750;52.134;5.424;2022-11-30T03:38:42;102526.56;;;9.54;81.93
72086;BME280;64750;52.134;5.424;2022-11-30T03:41:14;102523.06;;;9.53;81.82
72086;BME280;64750;52.134;5.424;2022-11-30T03:43:42;102528.31;;;9.53;81.80
72086;BME280;64750;52.134;5.424;2022-11-30T03:46:09;102526.63;;;9.52;81.94
72086;BME280;64750;52.134;5.424;2022-11-30T03:48:36;102524.84;;;9.53;82.09
72086;BME280;64750;52.134;5.424;2022-11-30T03:51:03;102524.00;;;9.52;82.17
72086;BME280;64750;52.134;5.424;2022-11-30T03:53:30;102530.13;;;9.51;81.69
72086;BME280;64750;52.134;5.424;2022-11-30T03:56:02;102524.00;;;9.52;82.05
72086;BME280;64750;52.134;5.424;2022-11-30T03:58:28;102521.38;;;9.51;82.03
72086;BME280;64750;52.134;5.424;2022-11-30T04:03:35;102528.41;;;9.50;82.07
72086;BME280;64750;52.134;5.424;2022-11-30T04:06:03;102533.66;;;9.50;81.90
72086;BME280;64750;52.134;5.424;2022-11-30T04:08:30;102531.03;;;9.50;81.89
72086;BME280;64750;52.134;5.424;2022-11-30T04:10:58;102537.19;;;9.49;81.96
72086;BME280;64750;52.134;5.424;2022-11-30T04:13:26;102534.56;;;9.49;81.91
72086;BME280;64750;52.134;5.424;2022-11-30T04:15:53;102534.56;;;9.49;81.86
72086;BME280;64750;52.134;5.424;2022-11-30T04:18:22;102532.00;;;9.48;81.75
72086;BME280;64750;52.134;5.424;2022-11-30T04:20:53;102543.34;;;9.48;82.29
72086;BME280;64750;52.134;5.424;2022-11-30T04:23:21;102540.72;;;9.48;82.06
72086;BME280;64750;52.134;5.424;2022-11-30T04:25:48;102535.47;;;9.48;81.78
72086;BME280;64750;52.134;5.424;2022-11-30T04:28:15;102532.00;;;9.48;81.66
72086;BME280;64750;52.134;5.424;2022-11-30T04:30:44;102539.00;;;9.47;82.27
72086;BME280;64750;52.134;5.424;2022-11-30T04:33:13;102541.63;;;9.47;81.78
72086;BME280;64750;52.134;5.424;2022-11-30T04:35:52;102538.13;;;9.47;81.81
72086;BME280;64750;52.134;5.424;2022-11-30T04:38:20;102539.91;;;9.46;81.98
72086;BME280;64750;52.134;5.424;2022-11-30T04:40:47;102537.28;;;9.46;82.15
72086;BME280;64750;52.134;5.424;2022-11-30T04:43:13;102538.19;;;9.45;81.72
72086;BME280;64750;52.134;5.424;2022-11-30T04:45:40;102538.19;;;9.45;82.04
72086;BME280;64750;52.134;5.424;2022-11-30T04:48:07;102534.72;;;9.45;82.13
72086;BME280;64750;52.134;5.424;2022-11-30T04:50:34;102534.72;;;9.45;82.23
72086;BME280;64750;52.134;5.424;2022-11-30T04:53:00;102541.69;;;9.44;81.75
72086;BME280;64750;52.134;5.424;2022-11-30T04:55:27;102539.97;;;9.43;82.09
72086;BME280;64750;52.134;5.424;2022-11-30T04:57:54;102538.28;;;9.42;82.06
72086;BME280;64750;52.134;5.424;2022-11-30T05:00:20;102539.13;;;9.43;82.06
72086;BME280;64750;52.134;5.424;2022-11-30T05:02:47;102541.81;;;9.41;82.09
72086;BME280;64750;52.134;5.424;2022-11-30T05:05:18;102540.94;;;9.41;82.05
72086;BME280;64750;52.134;5.424;2022-11-30T05:07:48;102534.81;;;9.40;81.71
72086;BME280;64750;52.134;5.424;2022-11-30T05:10:16;102542.75;;;9.39;81.91
72086;BME280;64750;52.134;5.424;2022-11-30T05:12:42;102541.88;;;9.38;82.01
72086;BME280;64750;52.134;5.424;2022-11-30T05:15:09;102548.91;;;9.38;81.87
72086;BME280;64750;52.134;5.424;2022-11-30T05:17:35;102545.44;;;9.37;82.02
72086;BME280;64750;52.134;5.424;2022-11-30T05:20:02;102548.03;;;9.37;81.96
72086;BME280;64750;52.134;5.424;2022-11-30T05:22:28;102545.44;;;9.37;82.14
72086;BME280;64750;52.134;5.424;2022-11-30T05:24:55;102541.97;;;9.35;81.83
72086;BME280;64750;52.134;5.424;2022-11-30T05:27:23;102545.44;;;9.35;81.83
72086;BME280;64750;52.134;5.424;2022-11-30T05:29:50;102541.97;;;9.35;82.20
72086;BME280;64750;52.134;5.424;2022-11-30T05:32:16;102543.75;;;9.33;81.85
72086;BME280;64750;52.134;5.424;2022-11-30T05:34:43;102541.97;;;9.35;81.96
72086;BME280;64750;52.134;5.424;2022-11-30T05:37:18;102549.84;;;9.35;81.96
72086;BME280;64750;52.134;5.424;2022-11-30T05:39:46;102540.25;;;9.34;82.08
72086;BME280;64750;52.134;5.424;2022-11-30T05:42:13;102548.13;;;9.34;82.00
72086;BME280;64750;52.134;5.424;2022-11-30T05:44:42;102536.72;;;9.35;82.11
72086;BME280;64750;52.134;5.424;2022-11-30T05:47:08;102544.53;;;9.36;81.91
72086;BME280;64750;52.134;5.424;2022-11-30T05:49:40;102549.78;;;9.36;82.33
72086;BME280;64750;52.134;5.424;2022-11-30T05:52:07;102552.38;;;9.38;82.05
72086;BME280;64750;52.134;5.424;2022-11-30T05:54:33;102552.38;;;9.38;82.35
72086;BME280;64750;52.134;5.424;2022-11-30T05:57:00;102559.34;;;9.39;82.20
72086;BME280;64750;52.134;5.424;2022-11-30T05:59:26;102554.03;;;9.41;82.16
72086;BME280;64750;52.134;5.424;2022-11-30T06:01:53;102564.53;;;9.42;82.35
72086;BME280;64750;52.134;5.424;2022-11-30T06:04:19;102560.13;;;9.43;82.31
72086;BME280;64750;52.134;5.424;2022-11-30T06:06:47;102561.84;;;9.44;82.29
72086;BME280;64750;52.134;5.424;2022-11-30T06:09:14;102559.19;;;9.45;82.24
72086;BME280;64750;52.134;5.424;2022-11-30T06:11:41;102563.53;;;9.46;82.18
72086;BME280;64750;52.134;5.424;2022-11-30T06:14:07;102562.63;;;9.47;82.40
72086;BME280;64750;52.134;5.424;2022-11-30T06:16:37;102564.31;;;9.48;82.57
72086;BME280;64750;52.134;5.424;2022-11-30T06:19:04;102566.06;;;9.49;82.29
72086;BME280;64750;52.134;5.424;2022-11-30T06:21:30;102564.31;;;9.50;82.54
72086;BME280;64750;52.134;5.424;2022-11-30T06:23:57;102564.25;;;9.51;82.38
72086;BME280;64750;52.134;5.424;2022-11-30T06:26:23;102569.50;;;9.51;82.47
72086;BME280;64750;52.134;5.424;2022-11-30T06:28:50;102574.72;;;9.53;82.25
72086;BME280;64750;52.134;5.424;2022-11-30T06:31:16;102569.41;;;9.55;82.51
72086;BME280;64750;52.134;5.424;2022-11-30T06:33:43;102579.00;;;9.56;82.47
72086;BME280;64750;52.134;5.424;2022-11-30T06:36:09;102578.97;;;9.57;82.40
72086;BME280;64750;52.134;5.424;2022-11-30T06:38:36;102572.00;;;9.56;82.38
72086;BME280;64750;52.134;5.424;2022-11-30T06:41:04;102576.28;;;9.59;82.07
72086;BME280;64750;52.134;5.424;2022-11-30T06:43:37;102579.78;;;9.59;82.31
72086;BME280;64750;52.134;5.424;2022-11-30T06:46:05;102578.91;;;9.60;82.14
72086;BME280;64750;52.134;5.424;2022-11-30T06:48:32;102578.03;;;9.60;82.20
72086;BME280;64750;52.134;5.424;2022-11-30T06:51:06;102578.91;;;9.60;81.97
72086;BME280;64750;52.134;5.424;2022-11-30T06:53:33;102579.75;;;9.61;82.20
72086;BME280;64750;52.134;5.424;2022-11-30T06:56:07;102591.09;;;9.61;81.94
72086;BME280;64750;52.134;5.424;2022-11-30T06:58:40;102590.25;;;9.61;82.06
72086;BME280;64750;52.134;5.424;2022-11-30T07:01:09;102595.50;;;9.61;82.32
72086;BME280;64750;52.134;5.424;2022-11-30T07:03:37;102595.44;;;9.62;81.95
72086;BME280;64750;52.134;5.424;2022-11-30T07:06:09;102594.66;;;9.60;81.08
72086;BME280;64750;52.134;5.424;2022-11-30T07:08:36;102598.25;;;9.56;80.26
72086;BME280;64750;52.134;5.424;2022-11-30T07:11:07;102599.28;;;9.50;79.67
72086;BME280;64750;52.134;5.424;2022-11-30T07:13:34;102608.16;;;9.46;79.12
72086;BME280;64750;52.134;5.424;2022-11-30T07:16:04;102616.91;;;9.45;79.21
72086;BME280;64750;52.134;5.424;2022-11-30T07:18:31;102615.19;;;9.44;79.52
72086;BME280;64750;52.134;5.424;2022-11-30T07:21:03;102619.59;;;9.44;79.46
72086;BME280;64750;52.134;5.424;2022-11-30T07:23:30;102622.25;;;9.42;79.80
72086;BME280;64750;52.134;5.424;2022-11-30T07:26:21;102621.44;;;9.40;80.04
72086;BME280;64750;52.134;5.424;2022-11-30T07:28:53;102627.56;;;9.39;79.74
72086;BME280;64750;52.134;5.424;2022-11-30T07:31:27;102631.97;;;9.39;79.96
72086;BME280;64750;52.134;5.424;2022-11-30T07:33:55;102635.59;;;9.34;80.04
72086;BME280;64750;52.134;5.424;2022-11-30T07:36:26;102634.72;;;9.34;80.38
72086;BME280;64750;52.134;5.424;2022-11-30T07:38:52;102628.63;;;9.33;80.44
72086;BME280;64750;52.134;5.424;2022-11-30T07:41:19;102635.59;;;9.33;80.34
72086;BME280;64750;52.134;5.424;2022-11-30T07:43:45;102640.06;;;9.31;80.44
72086;BME280;64750;52.134;5.424;2022-11-30T07:46:13;102646.16;;;9.31;80.52
72086;BME280;64750;52.134;5.424;2022-11-30T07:48:41;102638.28;;;9.31;80.40
72086;BME280;64750;52.134;5.424;2022-11-30T07:51:20;102656.66;;;9.31;80.79
72086;BME280;64750;52.134;5.424;2022-11-30T07:53:50;102647.97;;;9.29;80.69
72086;BME280;64750;52.134;5.424;2022-11-30T07:56:18;102662.84;;;9.29;80.68
72086;BME280;64750;52.134;5.424;2022-11-30T07:58:46;102661.09;;;9.28;80.94
72086;BME280;64750;52.134;5.424;2022-11-30T08:01:15;102662.84;;;9.29;81.09
72086;BME280;64750;52.134;5.424;2022-11-30T08:03:45;102659.41;;;9.27;81.17
72086;BME280;64750;52.134;5.424;2022-11-30T08:06:23;102664.66;;;9.27;81.07
72086;BME280;64750;52.134;5.424;2022-11-30T08:08:51;102665.53;;;9.26;80.91
72086;BME280;64750;52.134;5.424;2022-11-30T08:11:24;102663.81;;;9.25;81.08
72086;BME280;64750;52.134;5.424;2022-11-30T08:13:52;102668.22;;;9.23;81.03
72086;BME280;64750;52.134;5.424;2022-11-30T08:16:21;102671.72;;;9.23;80.96
72086;BME280;64750;52.134;5.424;2022-11-30T08:18:48;102673.56;;;9.19;81.30
72086;BME280;64750;52.134;5.424;2022-11-30T08:21:17;102677.00;;;9.22;81.20
72086;BME280;64750;52.134;5.424;2022-11-30T08:23:46;102677.88;;;9.22;81.25
72086;BME280;64750;52.134;5.424;2022-11-30T08:26:17;102684.84;;;9.23;81.52
72086;BME280;64750;52.134;5.424;2022-11-30T08:28:45;102690.94;;;9.24;81.31
72086;BME280;64750;52.134;5.424;2022-11-30T08:31:23;102687.47;;;9.23;81.53
72086;BME280;64750;52.134;5.424;2022-11-30T08:33:59;102692.72;;;9.22;81.35
72086;BME280;64750;52.134;5.424;2022-11-30T08:36:27;102691.88;;;9.21;81.81
72086;BME280;64750;52.134;5.424;2022-11-30T08:38:56;102697.13;;;9.21;81.58
72086;BME280;64750;52.134;5.424;2022-11-30T08:41:24;102696.25;;;9.22;81.46
72086;BME280;64750;52.134;5.424;2022-11-30T08:43:52;102695.34;;;9.22;81.55
72086;BME280;64750;52.134;5.424;2022-11-30T08:46:20;102695.34;;;9.22;81.26
72086;BME280;64750;52.134;5.424;2022-11-30T08:49:07;102703.28;;;9.20;81.62
72086;BME280;64750;52.134;5.424;2022-11-30T08:51:52;102700.66;;;9.20;81.56
72086;BME280;64750;52.134;5.424;2022-11-30T08:54:41;102699.72;;;9.23;81.87
72086;BME280;64750;52.134;5.424;2022-11-30T08:57:08;102705.84;;;9.22;81.31
72086;BME280;64750;52.134;5.424;2022-11-30T08:59:34;102705.78;;;9.25;81.69
72086;BME280;64750;52.134;5.424;2022-11-30T09:02:01;102701.38;;;9.27;81.52
72086;BME280;64750;52.134;5.424;2022-11-30T09:04:27;102704.84;;;9.27;81.69
72086;BME280;64750;52.134;5.424;2022-11-30T09:06:54;102706.63;;;9.27;81.40
72086;BME280;64750;52.134;5.424;2022-11-30T09:09:24;102713.63;;;9.26;81.65
72086;BME280;64750;52.134;5.424;2022-11-30T09:11:51;102704.91;;;9.26;81.23
72086;BME280;64750;52.134;5.424;2022-11-30T09:14:17;102705.78;;;9.25;81.55
72086;BME280;64750;52.134;5.424;2022-11-30T09:16:43;102708.41;;;9.25;81.47
72086;BME280;64750;52.134;5.424;2022-11-30T09:19:10;102708.41;;;9.25;81.21
72086;BME280;64750;52.134;5.424;2022-11-30T09:21:36;102715.41;;;9.26;81.59
72086;BME280;64750;52.134;5.424;2022-11-30T09:24:03;102720.69;;;9.23;81.42
72086;BME280;64750;52.134;5.424;2022-11-30T09:26:30;102728.63;;;9.21;81.52
72086;BME280;64750;52.134;5.424;2022-11-30T09:28:56;102726.03;;;9.19;81.84
72086;BME280;64750;52.134;5.424;2022-11-30T09:31:24;102722.53;;;9.19;81.74
72086;BME280;64750;52.134;5.424;2022-11-30T09:33:51;102727.75;;;9.21;81.88
72086;BME280;64750;52.134;5.424;2022-11-30T09:36:20;102723.38;;;9.21;81.82
72086;BME280;64750;52.134;5.424;2022-11-30T09:38:53;102727.75;;;9.21;81.77
72086;BME280;64750;52.134;5.424;2022-11-30T09:44:28;102732.94;;;9.24;81.96
72086;BME280;64750;52.134;5.424;2022-11-30T09:49:44;102730.25;;;9.27;81.74
72086;BME280;64750;52.134;5.424;2022-11-30T09:52:34;102732.81;;;9.28;82.19
72086;BME280;64750;52.134;5.424;2022-11-30T09:55:11;102741.50;;;9.32;81.79
72086;BME280;64750;52.134;5.424;2022-11-30T09:57:47;102735.41;;;9.30;81.86
72086;BME280;64750;52.134;5.424;2022-11-30T10:00:19;102738.03;;;9.30;81.48
72086;BME280;64750;52.134;5.424;2022-11-30T10:02:52;102734.50;;;9.31;81.65
72086;BME280;64750;52.134;5.424;2022-11-30T10:05:25;102731.00;;;9.30;81.23
72086;BME280;64750;52.134;5.424;2022-11-30T10:10:50;102723.13;;;9.30;81.07
72086;BME280;64750;52.134;5.424;2022-11-30T10:19:24;102718.81;;;9.28;81.19
72086;BME280;64750;52.134;5.424;2022-11-30T10:24:34;102724.06;;;9.28;81.34
72086;BME280;64750;52.134;5.424;2022-11-30T10:27:15;102731.06;;;9.29;81.16
72086;BME280;64750;52.134;5.424;2022-11-30T10:29:44;102724.03;;;9.31;81.09
72086;BME280;64750;52.134;5.424;2022-11-30T10:32:20;102726.56;;;9.34;80.91
72086;BME280;64750;52.134;5.424;2022-11-30T10:34:56;102726.56;;;9.34;80.87
72086;BME280;64750;52.134;5.424;2022-11-30T10:37:37;102723.94;;;9.34;80.74
72086;BME280;64750;52.134;5.424;2022-11-30T10:40:12;102716.00;;;9.35;80.92
72086;BME280;64750;52.134;5.424;2022-11-30T10:42:53;102724.72;;;9.38;81.06
72086;BME280;64750;52.134;5.424;2022-11-30T10:45:26;102722.94;;;9.38;81.22
72086;BME280;64750;52.134;5.424;2022-11-30T10:48:11;102715.00;;;9.41;80.91
72086;BME280;64750;52.134;5.424;2022-11-30T10:50:40;102724.56;;;9.44;80.66
72086;BME280;64750;52.134;5.424;2022-11-30T10:53:09;102721.91;;;9.45;80.82
72086;BME280;64750;52.134;5.424;2022-11-30T10:55:43;102718.28;;;9.49;80.55
72086;BME280;64750;52.134;5.424;2022-11-30T11:03:44;102712.75;;;9.62;80.15
72086;BME280;64750;52.134;5.424;2022-11-30T11:06:22;102702.16;;;9.65;79.95
72086;BME280;64750;52.134;5.424;2022-11-30T11:08:49;102703.81;;;9.69;79.69
72086;BME280;64750;52.134;5.424;2022-11-30T11:11:35;102700.97;;;9.77;79.77
72086;BME280;64750;52.134;5.424;2022-11-30T11:14:18;102705.19;;;9.82;79.56
72086;BME280;64750;52.134;5.424;2022-11-30T11:16:53;102706.75;;;9.90;79.22
72086;BME280;64750;52.134;5.424;2022-11-30T11:19:40;102703.13;;;9.94;79.08
72086;BME280;64750;52.134;5.424;2022-11-30T11:22:19;102708.13;;;10.03;78.85
72086;BME280;64750;52.134;5.424;2022-11-30T11:24:48;102703.59;;;10.08;78.62
72086;BME280;64750;52.134;5.424;2022-11-30T11:27:32;102701.75;;;10.12;78.54
72086;BME280;64750;52.134;5.424;2022-11-30T11:30:37;102694.88;;;10.08;77.67
72086;BME280;64750;52.134;5.424;2022-11-30T11:35:44;102695.09;;;10.00;76.92
72086;BME280;64750;52.134;5.424;2022-11-30T11:38:27;102699.41;;;10.01;77.14
72086;BME280;64750;52.134;5.424;2022-11-30T11:40:58;102691.47;;;10.04;77.04
72086;BME280;64750;52.134;5.424;2022-11-30T11:46:32;102701.09;;;10.04;77.05
72086;BME280;64750;52.134;5.424;2022-11-30T11:49:02;102688.91;;;10.01;76.75
72086;BME280;64750;52.134;5.424;2022-11-30T11:51:34;102699.41;;;10.01;76.69
72086;BME280;64750;52.134;5.424;2022-11-30T11:56:43;102699.19;;;10.10;76.52
72086;BME280;64750;52.134;5.424;2022-11-30T11:59:18;102695.56;;;10.14;76.11
72086;BME280;64750;52.134;5.424;2022-11-30T12:07:16;102692.97;;;10.13;76.34
72086;BME280;64750;52.134;5.424;2022-11-30T12:10:23;102700.09;;;10.09;76.38
72086;BME280;64750;52.134;5.424;2022-11-30T12:13:17;102694.91;;;10.06;76.34
72086;BME280;64750;52.134;5.424;2022-11-30T12:18:44;102692.09;;;10.12;76.12
72086;BME280;64750;52.134;5.424;2022-11-30T12:24:36;102700.94;;;10.10;76.45
72086;BME280;64750;52.134;5.424;2022-11-30T12:32:39;102705.16;;;10.15;76.43
72086;BME280;64750;52.134;5.424;2022-11-30T12:35:44;102699.00;;;10.16;76.49
72086;BME280;64750;52.134;5.424;2022-11-30T12:46:25;102700.72;;;10.17;77.41
72086;BME280;64750;52.134;5.424;2022-11-30T12:52:19;102700.69;;;10.19;77.96
72086;BME280;64750;52.134;5.424;2022-11-30T12:54:58;102702.38;;;10.22;78.20
72086;BME280;64750;52.134;5.424;2022-11-30T12:57:36;102704.06;;;10.23;78.07
72086;BME280;64750;52.134;5.424;2022-11-30T13:00:23;102705.75;;;10.25;78.21
72086;BME280;64750;52.134;5.424;2022-11-30T13:03:21;102709.25;;;10.26;78.10
72086;BME280;64750;52.134;5.424;2022-11-30T13:06:20;102712.72;;;10.26;78.16
72086;BME280;64750;52.134;5.424;2022-11-30T13:11:31;102717.03;;;10.29;78.37
72086;BME280;64750;52.134;5.424;2022-11-30T13:13:59;102721.41;;;10.30;78.14
72086;BME280;64750;52.134;5.424;2022-11-30T13:16:28;102717.88;;;10.31;78.56
72086;BME280;64750;52.134;5.424;2022-11-30T13:19:06;102720.44;;;10.32;78.66
72086;BME280;64750;52.134;5.424;2022-11-30T13:21:43;102718.66;;;10.33;78.57
72086;BME280;64750;52.134;5.424;2022-11-30T13:24:23;102725.66;;;10.34;78.28
72086;BME280;64750;52.134;5.424;2022-11-30T13:32:33;102716.00;;;10.36;78.40
72086;BME280;64750;52.134;5.424;2022-11-30T13:38:01;102722.03;;;10.40;78.57
72086;BME280;64750;52.134;5.424;2022-11-30T13:41:02;102724.59;;;10.41;78.77
72086;BME280;64750;52.134;5.424;2022-11-30T13:43:55;102722.88;;;10.40;78.69
72086;BME280;64750;52.134;5.424;2022-11-30T13:46:25;102726.41;;;10.39;78.95
72086;BME280;64750;52.134;5.424;2022-11-30T13:49:22;102724.59;;;10.41;78.77
72086;BME280;64750;52.134;5.424;2022-11-30T13:51:51;102714.09;;;10.41;78.45
72086;BME280;64750;52.134;5.424;2022-11-30T13:54:42;102721.09;;;10.42;78.92
72086;BME280;64750;52.134;5.424;2022-11-30T13:59:45;102722.88;;;10.40;78.60
72086;BME280;64750;52.134;5.424;2022-11-30T14:07:46;102723.72;;;10.41;79.20
72086;BME280;64750;52.134;5.424;2022-11-30T14:10:42;102733.41;;;10.40;79.21
72086;BME280;64750;52.134;5.424;2022-11-30T14:23:54;102735.91;;;10.45;79.31
72086;BME280;64750;52.134;5.424;2022-11-30T14:26:39;102738.53;;;10.45;78.68
72086;BME280;64750;52.134;5.424;2022-11-30T14:34:16;102758.63;;;10.47;78.75
72086;BME280;64750;52.134;5.424;2022-11-30T14:36:50;102757.72;;;10.47;78.85
72086;BME280;64750;52.134;5.424;2022-11-30T14:41:49;102761.25;;;10.47;78.59
72086;BME280;64750;52.134;5.424;2022-11-30T14:44:15;102759.47;;;10.48;78.75
72086;BME280;64750;52.134;5.424;2022-11-30T14:46:42;102755.97;;;10.47;78.98
72086;BME280;64750;52.134;5.424;2022-11-30T14:49:20;102764.78;;;10.46;78.89
72086;BME280;64750;52.134;5.424;2022-11-30T14:51:50;102758.63;;;10.47;78.62
72086;BME280;64750;52.134;5.424;2022-11-30T14:57:36;102759.50;;;10.46;78.60
72086;BME280;64750;52.134;5.424;2022-11-30T15:00:05;102765.63;;;10.47;78.65
72086;BME280;64750;52.134;5.424;2022-11-30T15:02:34;102763.88;;;10.46;78.93
72086;BME280;64750;52.134;5.424;2022-11-30T15:05:05;102763.00;;;10.47;78.81
72086;BME280;64750;52.134;5.424;2022-11-30T15:07:35;102762.13;;;10.46;78.48
72086;BME280;64750;52.134;5.424;2022-11-30T15:10:08;102763.88;;;10.46;78.44
72086;BME280;64750;52.134;5.424;2022-11-30T15:12:38;102760.41;;;10.45;78.19
72086;BME280;64750;52.134;5.424;2022-11-30T15:15:21;102767.44;;;10.45;78.35